Time;durP1;ratioP1;P1;durP2;ratioP2;P2;SDS_P1;SDS_P2;PMS_P1;PMS_P2;Temp;Humidity;BMP_temperature;BMP_pressure;BME280_temperature;BME280_humidity;BME280_pressure;Samples;Min_cycle;Max_cycle;Signal;HPM_P1;HPM_P2
2023/11/24 05:30:50;;;;;;;0.10;0.10;;;13.10;86.30;;;;;;5784359;23;20041;-77
2023/11/24 05:33:15;;;;;;;0.10;0.10;;;13.10;86.30;;;;;;5010109;28;20029;-77
2023/11/24 05:35:41;;;;;;;0.00;0.00;;;13.10;86.30;;;;;;5037195;28;20025;-77
2023/11/24 05:38:08;;;;;;;0.10;0.10;;;13.10;86.30;;;;;;5019029;28;20029;-78
2023/11/24 05:40:33;;;;;;;0.08;0.08;;;13.10;86.30;;;;;;5025837;28;20026;-77
2023/11/24 05:43:00;;;;;;;0.00;0.00;;;13.10;86.20;;;;;;5038522;28;20030;-77
2023/11/24 05:45:25;;;;;;;0.05;0.05;;;13.10;86.20;;;;;;5038683;28;20033;-78
2023/11/24 05:47:51;;;;;;;0.05;0.05;;;13.10;86.20;;;;;;5011094;28;20030;-77
2023/11/24 05:50:18;;;;;;;0.10;0.10;;;13.20;86.20;;;;;;5034619;28;20570;-75
2023/11/24 05:52:44;;;;;;;0.10;0.10;;;13.10;86.20;;;;;;5018356;28;20045;-77
2023/11/24 05:55:09;;;;;;;0.10;0.10;;;13.20;86.30;;;;;;5032127;28;20029;-76
2023/11/24 05:57:35;;;;;;;0.10;0.10;;;13.20;86.20;;;;;;5028145;28;20445;-76
2023/11/24 06:00:01;;;;;;;0.10;0.10;;;13.10;86.20;;;;;;5000956;28;20088;-76
2023/11/24 06:02:27;;;;;;;0.10;0.10;;;13.20;86.20;;;;;;5032985;28;20036;-76
2023/11/24 06:04:53;;;;;;;0.10;0.10;;;13.10;86.20;;;;;;5038336;28;20061;-76
2023/11/24 06:07:18;;;;;;;0.10;0.10;;;13.10;86.30;;;;;;5029956;28;20045;-79
2023/11/24 06:09:44;;;;;;;0.00;0.00;;;13.20;86.40;;;;;;5038576;28;20108;-78
2023/11/24 06:12:10;;;;;;;0.10;0.10;;;13.20;86.30;;;;;;5020391;28;20018;-78
2023/11/24 06:14:37;;;;;;;0.05;0.05;;;13.20;86.20;;;;;;5037889;28;20534;-80
2023/11/24 06:17:03;;;;;;;0.10;0.10;;;13.20;86.20;;;;;;5032945;28;20021;-79
2023/11/24 06:19:29;;;;;;;0.10;0.10;;;13.20;86.30;;;;;;5020842;28;20079;-82
2023/11/24 06:21:55;;;;;;;0.10;0.10;;;13.20;86.10;;;;;;5037773;28;20038;-82
2023/11/24 06:24:20;;;;;;;0.10;0.10;;;13.20;86.40;;;;;;5020475;28;20033;-82
2023/11/24 06:26:46;;;;;;;0.10;0.10;;;13.20;86.40;;;;;;5037601;28;20068;-78
2023/11/24 06:29:12;;;;;;;0.10;0.10;;;13.20;86.40;;;;;;5037401;28;20025;-78
2023/11/24 06:31:37;;;;;;;0.10;0.10;;;13.20;86.40;;;;;;5037740;28;20056;-80
2023/11/24 06:34:03;;;;;;;0.10;0.10;;;13.30;86.40;;;;;;5037128;28;20029;-79
2023/11/24 06:36:28;;;;;;;0.20;0.15;;;13.20;86.30;;;;;;5037768;28;20033;-80
2023/11/24 06:38:54;;;;;;;0.05;0.05;;;13.20;86.30;;;;;;5037225;28;20037;-79
2023/11/24 06:41:20;;;;;;;0.10;0.10;;;13.30;86.30;;;;;;5037530;28;20022;-80
2023/11/24 06:43:45;;;;;;;0.10;0.10;;;13.20;86.30;;;;;;5037790;28;20029;-82
2023/11/24 06:46:12;;;;;;;0.10;0.10;;;13.30;86.30;;;;;;5037211;28;20026;-82
2023/11/24 06:48:38;;;;;;;0.10;0.10;;;13.20;86.30;;;;;;5037077;28;20017;-81
2023/11/24 06:51:05;;;;;;;0.00;0.00;;;13.20;86.30;;;;;;5037803;28;20063;-82
2023/11/24 06:53:31;;;;;;;0.10;0.10;;;13.30;86.30;;;;;;5019324;28;20032;-82
2023/11/24 06:55:58;;;;;;;0.10;0.10;;;13.20;86.40;;;;;;5037384;28;20507;-82
2023/11/24 06:58:24;;;;;;;0.10;0.10;;;13.20;86.40;;;;;;5020358;28;20018;-82
2023/11/24 07:00:51;;;;;;;0.10;0.10;;;13.30;86.40;;;;;;5017698;28;20026;-82
2023/11/24 07:03:17;;;;;;;0.10;0.10;;;13.20;86.40;;;;;;5018361;28;20036;-82
2023/11/24 07:05:44;;;;;;;0.10;0.10;;;13.30;86.50;;;;;;5037423;28;20485;-82
2023/11/24 07:08:09;;;;;;;0.10;0.10;;;13.30;86.50;;;;;;5036826;28;20485;-82
2023/11/24 07:10:35;;;;;;;0.10;0.10;;;13.30;86.50;;;;;;5037888;28;20021;-82
2023/11/24 07:13:02;;;;;;;0.10;0.10;;;13.30;86.50;;;;;;5036640;28;20022;-82
2023/11/24 07:15:28;;;;;;;0.10;0.10;;;13.30;86.40;;;;;;5029511;28;20067;-82
2023/11/24 07:17:54;;;;;;;0.00;0.00;;;13.20;86.50;;;;;;5017698;28;20380;-82
2023/11/24 07:20:20;;;;;;;0.10;0.10;;;13.20;86.60;;;;;;5032008;28;20104;-82
2023/11/24 07:22:47;;;;;;;0.10;0.10;;;13.20;86.60;;;;;;5036946;28;20022;-82
2023/11/24 07:25:13;;;;;;;0.00;0.00;;;13.20;86.80;;;;;;5036909;28;20543;-82
2023/11/24 07:27:40;;;;;;;0.10;0.10;;;13.20;86.80;;;;;;5037136;28;20030;-82
2023/11/24 07:30:06;;;;;;;0.10;0.10;;;13.20;86.90;;;;;;5036742;28;20033;-82
2023/11/24 07:32:32;;;;;;;0.10;0.10;;;13.20;86.90;;;;;;5036676;28;20040;-82
2023/11/24 07:34:59;;;;;;;0.10;0.10;;;13.20;87.00;;;;;;5036452;28;20366;-82
2023/11/24 07:37:26;;;;;;;0.10;0.10;;;13.20;86.90;;;;;;5019374;28;20083;-82
2023/11/24 07:39:52;;;;;;;0.00;0.00;;;13.20;86.80;;;;;;5018460;28;20488;-82
2023/11/24 07:42:18;;;;;;;0.10;0.10;;;13.20;86.90;;;;;;5018797;28;20500;-82
2023/11/24 07:44:44;;;;;;;0.10;0.10;;;13.20;86.80;;;;;;5018707;28;20025;-81
2023/11/24 07:47:14;;;;;;;0.10;0.10;;;13.20;86.80;;;;;;5015501;28;20057;-82
2023/11/24 07:49:40;;;;;;;0.10;0.10;;;13.30;86.80;;;;;;5016751;28;20058;-82
2023/11/24 07:52:06;;;;;;;0.10;0.10;;;13.30;86.60;;;;;;5030926;28;20032;-82
2023/11/24 07:54:32;;;;;;;0.10;0.10;;;13.30;86.60;;;;;;5036727;28;20056;-82
2023/11/24 07:56:57;;;;;;;0.10;0.10;;;13.30;86.60;;;;;;5013037;28;20430;-82
2023/11/24 07:59:26;;;;;;;0.10;0.10;;;13.30;86.60;;;;;;5001730;28;20022;-82
2023/11/24 08:01:51;;;;;;;0.10;0.10;;;13.30;86.50;;;;;;5015699;28;20041;-82
2023/11/24 08:04:17;;;;;;;0.10;0.10;;;13.30;86.60;;;;;;5036731;28;20021;-82
2023/11/24 08:06:42;;;;;;;0.10;0.10;;;13.30;86.60;;;;;;5019038;28;20388;-82
2023/11/24 08:09:08;;;;;;;0.03;0.03;;;13.30;86.50;;;;;;5017522;28;20033;-82
2023/11/24 08:11:34;;;;;;;0.10;0.10;;;13.30;86.50;;;;;;5036301;28;20026;-82
2023/11/24 08:14:00;;;;;;;0.10;0.10;;;13.20;86.40;;;;;;5019103;28;20053;-83
2023/11/24 08:16:26;;;;;;;0.00;0.00;;;13.20;86.50;;;;;;5034900;28;20546;-83
2023/11/24 08:18:52;;;;;;;0.10;0.10;;;13.20;86.40;;;;;;5035364;28;20408;-83
2023/11/24 08:21:18;;;;;;;0.10;0.10;;;13.20;86.50;;;;;;5036136;28;20104;-82
2023/11/24 08:23:44;;;;;;;0.10;0.10;;;13.20;86.40;;;;;;5036037;28;20163;-81
2023/11/24 08:26:17;;;;;;;0.10;0.10;;;13.20;86.50;;;;;;5018091;28;20033;-82
2023/11/24 08:28:44;;;;;;;0.10;0.10;;;13.20;86.40;;;;;;5033983;28;20026;-86
2023/11/24 08:31:18;;;;;;;0.10;0.10;;;13.20;86.40;;;;;;5035420;28;20053;-83
2023/11/24 08:33:43;;;;;;;0.10;0.10;;;13.20;86.50;;;;;;5036015;28;20374;-85
2023/11/24 08:36:10;;;;;;;0.10;0.10;;;13.20;86.40;;;;;;5035442;28;20036;-85
2023/11/24 08:38:35;;;;;;;0.10;0.10;;;13.20;86.50;;;;;;5035803;28;20110;-83
2023/11/24 08:41:02;;;;;;;0.10;0.10;;;13.30;86.40;;;;;;5035484;28;20048;-82
2023/11/24 08:43:27;;;;;;;0.10;0.10;;;13.30;86.50;;;;;;5036051;28;20022;-82
2023/11/24 08:45:53;;;;;;;0.05;0.05;;;13.30;86.50;;;;;;5035864;28;20022;-87
2023/11/24 08:48:18;;;;;;;0.10;0.10;;;13.50;86.30;;;;;;5035325;28;20038;-85
2023/11/24 08:50:45;;;;;;;0.10;0.10;;;13.50;86.40;;;;;;5011917;28;20106;-82
2023/11/24 08:53:10;;;;;;;0.10;0.10;;;13.50;86.20;;;;;;5017549;28;20064;-82
2023/11/24 08:55:36;;;;;;;0.10;0.10;;;13.70;86.00;;;;;;5036672;28;20022;-82
2023/11/24 08:58:01;;;;;;;0.10;0.10;;;13.70;86.00;;;;;;5039240;28;20013;-82
2023/11/24 09:00:30;;;;;;;0.10;0.10;;;13.70;85.90;;;;;;5039527;28;20021;-82
2023/11/24 09:02:57;;;;;;;0.10;0.10;;;13.70;85.90;;;;;;5038910;28;20037;-83
2023/11/24 09:05:24;;;;;;;0.10;0.10;;;13.80;85.80;;;;;;5021718;28;20041;-82
2023/11/24 09:07:49;;;;;;;0.47;0.40;;;13.80;85.70;;;;;;5039290;28;20120;-82
2023/11/24 09:10:15;;;;;;;0.20;0.20;;;13.80;85.60;;;;;;5021567;28;20061;-82
2023/11/24 09:12:40;;;;;;;0.13;0.13;;;13.90;85.50;;;;;;5019149;28;20045;-82
2023/11/24 09:15:06;;;;;;;0.10;0.10;;;13.90;85.40;;;;;;5039349;28;20026;-82
2023/11/24 09:17:34;;;;;;;0.10;0.10;;;14.10;85.30;;;;;;5039431;28;20021;-82
2023/11/24 09:20:00;;;;;;;0.05;0.05;;;14.10;85.00;;;;;;5021839;28;20117;-83
2023/11/24 09:22:25;;;;;;;0.10;0.10;;;14.10;85.00;;;;;;5039631;28;20053;-82
2023/11/24 09:24:51;;;;;;;0.10;0.10;;;14.20;85.10;;;;;;5036359;28;20034;-82
2023/11/24 09:27:17;;;;;;;0.10;0.10;;;14.20;85.00;;;;;;5037325;28;20029;-83
2023/11/24 09:29:42;;;;;;;0.10;0.10;;;14.20;85.00;;;;;;5021560;28;20037;-82
2023/11/24 09:32:08;;;;;;;0.10;0.10;;;14.20;84.90;;;;;;5029443;28;20089;-83
2023/11/24 09:34:35;;;;;;;0.00;0.00;;;14.10;84.70;;;;;;5018361;28;20025;-83
2023/11/24 09:37:02;;;;;;;0.00;0.00;;;14.20;84.80;;;;;;5039166;28;20018;-83
2023/11/24 09:39:28;;;;;;;0.10;0.10;;;14.20;84.80;;;;;;5039156;28;20088;-82
2023/11/24 09:41:54;;;;;;;0.10;0.10;;;14.20;84.60;;;;;;5038621;28;20037;-82
2023/11/24 09:44:20;;;;;;;0.10;0.10;;;14.20;84.50;;;;;;5021038;28;20075;-83
2023/11/24 09:46:47;;;;;;;0.00;0.00;;;14.30;84.30;;;;;;5021392;28;20029;-82
2023/11/24 09:49:15;;;;;;;0.10;0.10;;;14.30;84.40;;;;;;5038583;28;20036;-83
2023/11/24 09:51:41;;;;;;;0.10;0.10;;;14.30;83.90;;;;;;5038126;28;20022;-82
2023/11/24 09:54:09;;;;;;;0.10;0.10;;;14.40;83.70;;;;;;5037551;28;20032;-82
2023/11/24 09:56:35;;;;;;;0.10;0.10;;;14.40;83.70;;;;;;5035357;28;20017;-82
2023/11/24 09:59:08;;;;;;;0.20;0.20;;;14.50;83.80;;;;;;5035251;28;20503;-82
2023/11/24 10:01:36;;;;;;;;;;;14.50;82.70;;;;;;5034909;28;20021;-83
2023/11/24 10:04:03;;;;;;;0.00;0.00;;;14.50;82.90;;;;;;5020738;28;19905;-83
2023/11/24 10:06:33;;;;;;;0.10;0.10;;;14.70;82.90;;;;;;5035744;28;20044;-83
2023/11/24 10:08:59;;;;;;;0.10;0.10;;;14.80;82.20;;;;;;5037151;28;20029;-82
2023/11/24 10:11:28;;;;;;;0.10;0.10;;;14.80;82.10;;;;;;5037581;28;20034;-85
2023/11/24 10:13:55;;;;;;;0.10;0.10;;;14.70;82.00;;;;;;5038037;28;20025;-79
2023/11/24 10:16:22;;;;;;;0.10;0.10;;;14.70;82.10;;;;;;5037769;28;20022;-78
2023/11/24 10:18:49;;;;;;;0.10;0.10;;;14.70;81.80;;;;;;5033866;28;20013;-81
2023/11/24 10:21:15;;;;;;;0.10;0.10;;;14.60;81.50;;;;;;5012336;28;20037;-84
2023/11/24 10:23:40;;;;;;;0.10;0.10;;;14.60;81.40;;;;;;5036365;28;20455;-85
2023/11/24 10:26:17;;;;;;;0.10;0.10;;;14.50;79.80;;;;;;5011605;28;20022;-84
2023/11/24 10:28:46;;;;;;;0.10;0.10;;;14.30;79.80;;;;;;5017453;28;20027;-84
2023/11/24 10:31:13;;;;;;;0.00;0.00;;;14.30;79.80;;;;;;5013148;28;20045;-84
2023/11/24 10:33:43;;;;;;;0.10;0.10;;;14.30;79.90;;;;;;5011531;28;20010;-84
2023/11/24 10:36:09;;;;;;;0.10;0.10;;;14.20;79.80;;;;;;5037298;28;20021;-84
2023/11/24 10:38:39;;;;;;;0.10;0.10;;;14.30;79.60;;;;;;5017250;28;20235;-84
2023/11/24 10:41:12;;;;;;;0.10;0.10;;;14.30;79.60;;;;;;5037732;28;20119;-84
2023/11/24 10:43:38;;;;;;;;;;;14.30;79.60;;;;;;5037926;28;20022;-83
2023/11/24 10:46:07;;;;;;;0.10;0.10;;;14.50;79.60;;;;;;5017680;28;19996;-84
2023/11/24 10:48:36;;;;;;;0.10;0.10;;;14.60;78.90;;;;;;5035129;28;20029;-83
2023/11/24 10:51:15;;;;;;;0.10;0.10;;;14.70;78.30;;;;;;5037385;28;20026;-83
2023/11/24 10:53:49;;;;;;;0.00;0.00;;;14.60;77.10;;;;;;5017634;28;20052;-83
2023/11/24 10:56:16;;;;;;;0.10;0.10;;;14.50;77.40;;;;;;5035079;28;20450;-83
2023/11/24 10:58:46;;;;;;;0.10;0.10;;;14.50;77.40;;;;;;5037295;28;20025;-83
2023/11/24 11:01:16;;;;;;;0.10;0.10;;;14.40;76.80;;;;;;5018598;28;20025;-83
2023/11/24 11:03:45;;;;;;;0.10;0.10;;;14.30;76.40;;;;;;5037161;28;20030;-83
2023/11/24 11:06:34;;;;;;;0.10;0.10;;;14.30;76.40;;;;;;5037160;28;20013;-83
2023/11/24 11:11:45;;;;;;;;;;;14.20;76.20;;;;;;5036411;28;20082;-85
2023/11/24 11:14:14;;;;;;;0.10;0.10;;;14.20;77.00;;;;;;5036535;28;20440;-84
2023/11/24 11:16:39;;;;;;;0.10;0.10;;;14.30;76.50;;;;;;5033599;28;20028;-84
2023/11/24 11:19:55;;;;;;;0.10;0.10;;;14.50;76.00;;;;;;5024639;28;20029;-84
2023/11/24 11:22:27;;;;;;;0.10;0.10;;;14.70;75.60;;;;;;4957409;28;20085;-83
2023/11/24 11:24:53;;;;;;;0.10;0.10;;;14.60;74.90;;;;;;5025453;28;20034;-85
2023/11/24 11:27:24;;;;;;;0.10;0.10;;;14.60;75.50;;;;;;5037610;28;20037;-86
2023/11/24 11:29:49;;;;;;;0.10;0.10;;;14.50;75.10;;;;;;5018462;28;20112;-86
2023/11/24 11:32:15;;;;;;;0.10;0.10;;;14.60;74.50;;;;;;5019374;28;20112;-83
2023/11/24 11:34:42;;;;;;;0.10;0.10;;;14.50;74.90;;;;;;5035810;28;20032;-84
2023/11/24 11:37:11;;;;;;;0.10;0.10;;;14.60;75.20;;;;;;5033691;28;20018;-84
2023/11/24 11:39:53;;;;;;;0.10;0.10;;;14.70;75.00;;;;;;4998714;28;20137;-81
2023/11/24 11:42:23;;;;;;;0.10;0.10;;;14.70;74.10;;;;;;5035665;28;20029;-83
2023/11/24 11:44:56;;;;;;;0.10;0.10;;;14.80;74.00;;;;;;5036344;28;20375;-82
2023/11/24 11:47:26;;;;;;;0.10;0.10;;;15.00;73.70;;;;;;5034181;28;20087;-83
2023/11/24 11:49:54;;;;;;;0.10;0.10;;;14.90;72.80;;;;;;5015660;28;20040;-81
2023/11/24 11:52:25;;;;;;;0.10;0.10;;;14.80;72.30;;;;;;5036283;28;20488;-81
2023/11/24 11:54:51;;;;;;;0.10;0.10;;;14.60;72.60;;;;;;5018612;28;20113;-82
2023/11/24 11:57:20;;;;;;;0.10;0.10;;;14.40;73.10;;;;;;5033197;28;20489;-82
2023/11/24 11:59:47;;;;;;;0.10;0.10;;;14.40;73.50;;;;;;5017021;28;20105;-82
2023/11/24 12:02:16;;;;;;;0.10;0.10;;;14.30;73.50;;;;;;5009466;28;20036;-82
2023/11/24 12:04:42;;;;;;;0.10;0.10;;;14.30;73.90;;;;;;5018914;28;20040;-82
2023/11/24 12:07:09;;;;;;;0.10;0.10;;;14.30;73.20;;;;;;5035611;28;20033;-82
2023/11/24 12:09:36;;;;;;;0.10;0.10;;;14.30;73.90;;;;;;5036259;28;20055;-82
2023/11/24 12:12:03;;;;;;;0.10;0.10;;;14.40;73.60;;;;;;5036672;28;20104;-82
2023/11/24 12:14:28;;;;;;;0.10;0.10;;;14.40;73.00;;;;;;5036369;28;20033;-81
2023/11/24 12:16:54;;;;;;;0.10;0.10;;;14.40;73.70;;;;;;5018425;28;20029;-82
2023/11/24 12:19:22;;;;;;;0.10;0.10;;;14.50;73.10;;;;;;5017440;28;20025;-82
2023/11/24 12:21:48;;;;;;;0.10;0.10;;;14.50;72.60;;;;;;5018802;28;20029;-81
2023/11/24 12:24:14;;;;;;;0.10;0.10;;;14.50;72.70;;;;;;5018540;28;20046;-82
2023/11/24 12:26:41;;;;;;;0.10;0.10;;;14.30;72.10;;;;;;5017580;28;20030;-82
2023/11/24 12:29:15;;;;;;;0.10;0.10;;;14.30;71.90;;;;;;5018478;28;20176;-81
2023/11/24 12:31:42;;;;;;;0.10;0.10;;;14.30;71.60;;;;;;5038385;28;20053;-81
2023/11/24 12:34:17;;;;;;;0.10;0.10;;;14.30;70.90;;;;;;5022971;28;20022;-82
2023/11/24 12:36:44;;;;;;;0.03;0.03;;;14.30;70.90;;;;;;5022337;28;20459;-82
2023/11/24 12:39:13;;;;;;;0.10;0.10;;;14.20;70.80;;;;;;5021601;28;20040;-82
2023/11/24 12:41:43;;;;;;;0.10;0.10;;;14.30;70.70;;;;;;5040219;28;20036;-81
2023/11/24 12:44:13;;;;;;;0.10;0.10;;;14.20;71.10;;;;;;5018564;28;20036;-81
2023/11/24 12:46:39;;;;;;;0.10;0.10;;;14.30;71.10;;;;;;5018861;28;20026;-81
2023/11/24 12:49:05;;;;;;;0.10;0.10;;;14.30;70.30;;;;;;5023160;28;20401;-82
2023/11/24 12:51:34;;;;;;;0.10;0.10;;;14.10;69.60;;;;;;5021515;28;20055;-81
2023/11/24 12:54:00;;;;;;;0.10;0.10;;;14.00;70.40;;;;;;5040181;28;20060;-82
2023/11/24 12:56:29;;;;;;;0.10;0.10;;;14.10;70.50;;;;;;5038789;28;20037;-81
2023/11/24 12:58:56;;;;;;;0.10;0.10;;;14.10;70.70;;;;;;5006188;28;20029;-81
2023/11/24 13:01:22;;;;;;;0.10;0.10;;;14.10;69.90;;;;;;5040060;28;20033;-81
2023/11/24 13:03:52;;;;;;;0.10;0.10;;;14.10;69.60;;;;;;5021016;28;20471;-82
2023/11/24 13:06:18;;;;;;;0.10;0.10;;;14.00;70.10;;;;;;5039240;28;20557;-82
2023/11/24 13:08:43;;;;;;;0.15;0.10;;;14.10;70.30;;;;;;5037282;28;20083;-82
2023/11/24 13:11:09;;;;;;;0.10;0.10;;;14.10;70.30;;;;;;5039920;28;20021;-82
2023/11/24 13:13:35;;;;;;;0.10;0.10;;;14.20;70.10;;;;;;5039972;28;20033;-82
2023/11/24 13:16:03;;;;;;;0.10;0.10;;;14.30;70.80;;;;;;5039137;28;20056;-82
2023/11/24 13:18:29;;;;;;;0.10;0.10;;;14.30;70.40;;;;;;5039162;28;20025;-82
2023/11/24 13:20:54;;;;;;;0.10;0.10;;;14.30;70.60;;;;;;5021445;28;20083;-82
2023/11/24 13:23:20;;;;;;;0.10;0.10;;;14.30;69.10;;;;;;5038809;28;20096;-82
2023/11/24 13:25:46;;;;;;;0.10;0.10;;;14.20;69.50;;;;;;5039058;28;20429;-81
2023/11/24 13:28:12;;;;;;;0.10;0.10;;;14.30;69.60;;;;;;5039164;28;20108;-82
2023/11/24 13:30:38;;;;;;;0.15;0.15;;;14.20;68.60;;;;;;5039550;28;20065;-82
2023/11/24 13:33:04;;;;;;;0.10;0.10;;;14.20;69.80;;;;;;5038327;28;20029;-81
2023/11/24 13:35:30;;;;;;;0.10;0.10;;;14.20;68.60;;;;;;5021273;28;20028;-81
2023/11/24 13:37:56;;;;;;;0.10;0.10;;;14.10;69.50;;;;;;5038956;28;20400;-82
2023/11/24 13:40:25;;;;;;;0.10;0.10;;;13.80;68.20;;;;;;5038486;28;20108;-82
2023/11/24 13:42:52;;;;;;;0.10;0.10;;;13.80;69.50;;;;;;5037009;28;20021;-82
2023/11/24 13:45:20;;;;;;;0.10;0.10;;;13.80;69.00;;;;;;5039211;28;20056;-81
2023/11/24 13:47:46;;;;;;;0.10;0.10;;;13.80;69.40;;;;;;5038543;28;20606;-81
2023/11/24 13:50:13;;;;;;;0.10;0.10;;;13.90;68.00;;;;;;5038953;28;20036;-81
2023/11/24 13:52:41;;;;;;;0.10;0.10;;;13.80;68.20;;;;;;5038563;28;20024;-82
2023/11/24 13:55:07;;;;;;;0.10;0.10;;;13.80;68.80;;;;;;5038534;28;20028;-82
2023/11/24 13:57:33;;;;;;;0.10;0.10;;;13.80;69.00;;;;;;5010755;28;20030;-82
2023/11/24 13:59:58;;;;;;;0.10;0.10;;;13.90;68.70;;;;;;5021731;28;20033;-81
2023/11/24 14:02:25;;;;;;;0.10;0.10;;;13.90;69.10;;;;;;5018672;28;20428;-82
2023/11/24 14:04:51;;;;;;;0.10;0.10;;;13.90;68.60;;;;;;5031753;28;20021;-82
2023/11/24 14:07:19;;;;;;;0.10;0.10;;;13.90;68.00;;;;;;5038183;28;20064;-82
2023/11/24 14:09:45;;;;;;;0.10;0.10;;;13.80;67.90;;;;;;5038093;28;20021;-82
2023/11/24 14:12:12;;;;;;;0.10;0.10;;;13.80;68.10;;;;;;5038928;28;20507;-81
2023/11/24 14:14:38;;;;;;;0.10;0.10;;;13.70;67.90;;;;;;5020615;28;20026;-82
2023/11/24 14:17:04;;;;;;;0.10;0.10;;;13.70;67.90;;;;;;5038271;28;20445;-82
2023/11/24 14:19:30;;;;;;;0.10;0.10;;;13.80;68.40;;;;;;5019822;28;20053;-81
2023/11/24 14:21:56;;;;;;;0.10;0.10;;;13.70;68.20;;;;;;5019916;28;20034;-81
2023/11/24 14:24:23;;;;;;;0.10;0.10;;;13.80;68.50;;;;;;5038154;28;20500;-82
2023/11/24 14:26:49;;;;;;;0.10;0.10;;;13.70;67.10;;;;;;5019714;28;20033;-82
2023/11/24 14:29:16;;;;;;;0.10;0.10;;;13.70;67.80;;;;;;5038236;28;20056;-81
2023/11/24 14:31:42;;;;;;;0.10;0.10;;;13.70;68.50;;;;;;5037581;28;20041;-81
2023/11/24 14:34:08;;;;;;;0.10;0.10;;;13.60;67.30;;;;;;5037657;28;20028;-81
2023/11/24 14:36:38;;;;;;;0.15;0.15;;;13.60;67.40;;;;;;5038095;28;20076;-81
2023/11/24 14:39:19;;;;;;;0.10;0.10;;;13.50;67.70;;;;;;5037753;28;20022;-82
2023/11/24 14:41:47;;;;;;;0.10;0.10;;;13.60;68.40;;;;;;5037297;28;20104;-81
2023/11/24 14:44:12;;;;;;;0.10;0.10;;;13.60;67.80;;;;;;5037653;28;20032;-81
2023/11/24 14:46:38;;;;;;;0.10;0.10;;;13.50;67.80;;;;;;5037796;28;20033;-81
2023/11/24 14:49:04;;;;;;;0.10;0.10;;;13.50;68.10;;;;;;5020158;28;20124;-81
2023/11/24 14:51:32;;;;;;;0.10;0.10;;;13.50;67.70;;;;;;5037363;28;20021;-82
2023/11/24 14:53:58;;;;;;;0.10;0.10;;;13.40;67.90;;;;;;5037880;28;20040;-82
2023/11/24 14:56:25;;;;;;;0.10;0.10;;;13.40;67.50;;;;;;5036186;28;20025;-81
2023/11/24 14:58:51;;;;;;;0.08;0.08;;;13.40;68.20;;;;;;5017401;28;20060;-81
2023/11/24 15:01:22;;;;;;;0.10;0.10;;;13.40;67.40;;;;;;5023815;28;20029;-82
2023/11/24 15:03:48;;;;;;;0.10;0.10;;;13.30;68.10;;;;;;5016537;28;20103;-81
2023/11/24 15:06:14;;;;;;;0.10;0.10;;;13.30;68.50;;;;;;5037113;28;20030;-82
2023/11/24 15:08:48;;;;;;;0.10;0.10;;;13.30;67.80;;;;;;5036819;28;20020;-82
2023/11/24 15:11:18;;;;;;;0.10;0.10;;;13.20;67.90;;;;;;5019954;28;20028;-81
2023/11/24 15:13:44;;;;;;;0.10;0.10;;;13.20;68.70;;;;;;5020037;28;20048;-82
2023/11/24 15:16:17;;;;;;;0.10;0.10;;;13.30;69.00;;;;;;5019017;28;20034;-82
2023/11/24 15:18:47;;;;;;;0.10;0.10;;;13.30;68.80;;;;;;5036695;28;20056;-82
2023/11/24 15:21:33;;;;;;;0.10;0.10;;;13.30;68.60;;;;;;5036885;28;20052;-82
2023/11/24 15:24:04;;;;;;;0.10;0.10;;;13.20;68.40;;;;;;5036804;28;20034;-81
2023/11/24 15:26:32;;;;;;;0.10;0.10;;;13.20;68.50;;;;;;5018857;28;20025;-81
2023/11/24 15:29:00;;;;;;;0.10;0.10;;;13.10;67.60;;;;;;5036505;28;20022;-81
2023/11/24 15:31:26;;;;;;;0.10;0.10;;;13.10;68.60;;;;;;5037281;28;20412;-82
2023/11/24 15:33:56;;;;;;;0.10;0.10;;;13.00;68.60;;;;;;5036667;28;20389;-82
2023/11/24 15:36:28;;;;;;;0.00;0.00;;;13.00;68.80;;;;;;5036612;28;20033;-82
2023/11/24 15:38:56;;;;;;;0.10;0.10;;;13.10;69.30;;;;;;5018868;28;20389;-82
2023/11/24 15:41:45;;;;;;;0.10;0.10;;;13.00;68.80;;;;;;5037132;28;20033;-82
2023/11/24 15:44:12;;;;;;;0.10;0.10;;;13.00;68.70;;;;;;5019274;28;20048;-82
2023/11/24 15:46:40;;;;;;;0.10;0.10;;;13.00;68.60;;;;;;5036128;28;20377;-82
2023/11/24 15:49:15;;;;;;;0.10;0.10;;;12.90;68.90;;;;;;5036792;28;20025;-81
2023/11/24 15:51:51;;;;;;;0.10;0.10;;;12.80;68.40;;;;;;5036052;28;20038;-82
2023/11/24 15:54:17;;;;;;;0.10;0.10;;;12.80;69.00;;;;;;5037057;28;20013;-81
2023/11/24 15:56:43;;;;;;;0.10;0.10;;;12.70;69.00;;;;;;5033207;28;20022;-82
2023/11/24 15:59:15;;;;;;;0.10;0.10;;;12.80;69.70;;;;;;5023343;28;20021;-82
2023/11/24 16:01:42;;;;;;;0.10;0.10;;;12.80;69.30;;;;;;5018645;28;20064;-81
2023/11/24 16:04:11;;;;;;;0.10;0.10;;;12.80;69.80;;;;;;5036817;28;20021;-81
2023/11/24 16:06:46;;;;;;;0.10;0.10;;;12.80;69.10;;;;;;5035439;28;20033;-81
2023/11/24 16:09:12;;;;;;;0.10;0.10;;;12.80;69.70;;;;;;5006332;28;20088;-81
2023/11/24 16:12:00;;;;;;;0.10;0.10;;;12.70;69.80;;;;;;4999006;28;20022;-81
2023/11/24 16:14:30;;;;;;;0.10;0.10;;;12.70;69.80;;;;;;5028344;28;20089;-81
2023/11/24 16:16:56;;;;;;;0.10;0.10;;;12.60;69.50;;;;;;5035829;28;20079;-81
2023/11/24 16:19:23;;;;;;;0.10;0.10;;;12.50;69.90;;;;;;5036303;28;20396;-81
2023/11/24 16:21:50;;;;;;;0.10;0.10;;;12.50;69.90;;;;;;5036553;28;20026;-82
2023/11/24 16:24:16;;;;;;;0.10;0.10;;;12.50;70.00;;;;;;5018054;28;20075;-81
2023/11/24 16:26:42;;;;;;;0.10;0.10;;;12.50;70.40;;;;;;5018802;28;20399;-81
2023/11/24 16:29:08;;;;;;;0.10;0.10;;;12.50;70.40;;;;;;5036051;28;20120;-82
2023/11/24 16:31:34;;;;;;;0.10;0.10;;;12.40;69.80;;;;;;5035546;28;20124;-81
2023/11/24 16:34:01;;;;;;;0.17;0.17;;;12.40;70.00;;;;;;5018506;28;20053;-81
2023/11/24 16:36:27;;;;;;;0.10;0.10;;;12.50;70.40;;;;;;5036613;28;20101;-81
2023/11/24 16:38:54;;;;;;;0.10;0.10;;;12.40;69.90;;;;;;5035879;28;20076;-81
2023/11/24 16:41:20;;;;;;;0.10;0.10;;;12.40;70.00;;;;;;5018764;28;20057;-82
2023/11/24 16:43:45;;;;;;;0.10;0.10;;;12.30;69.80;;;;;;5036292;28;20038;-82
2023/11/24 16:46:11;;;;;;;0.10;0.10;;;12.40;70.40;;;;;;5014524;28;20107;-82
2023/11/24 16:48:40;;;;;;;0.10;0.10;;;12.40;70.20;;;;;;5016713;28;20034;-81
2023/11/24 16:51:06;;;;;;;0.10;0.10;;;12.40;70.20;;;;;;5024623;28;20013;-81
2023/11/24 16:53:32;;;;;;;0.10;0.10;;;12.40;70.10;;;;;;5017682;28;20022;-81
2023/11/24 16:55:57;;;;;;;0.10;0.10;;;12.30;69.50;;;;;;5036342;28;20028;-81
2023/11/24 16:58:23;;;;;;;0.10;0.10;;;12.30;70.20;;;;;;5006956;28;20097;-81
2023/11/24 17:00:48;;;;;;;0.13;0.13;;;12.20;70.00;;;;;;5018573;28;20033;-82
2023/11/24 17:03:14;;;;;;;0.10;0.10;;;12.20;70.30;;;;;;5017005;28;20057;-82
2023/11/24 17:05:40;;;;;;;0.10;0.10;;;12.20;70.40;;;;;;5017966;28;20018;-81
2023/11/24 17:08:06;;;;;;;0.10;0.10;;;12.30;70.80;;;;;;5017816;28;20032;-76
2023/11/24 17:10:33;;;;;;;0.10;0.10;;;12.20;69.90;;;;;;5016254;28;20029;-76
2023/11/24 17:13:00;;;;;;;0.10;0.10;;;12.30;70.50;;;;;;5032985;28;20493;-77
2023/11/24 17:15:26;;;;;;;0.10;0.10;;;12.30;70.40;;;;;;5036341;28;20404;-76
2023/11/24 17:17:53;;;;;;;0.10;0.10;;;12.20;69.80;;;;;;5037523;28;20022;-76
2023/11/24 17:20:19;;;;;;;0.13;0.13;;;12.20;69.80;;;;;;5020861;28;20392;-75
2023/11/24 17:22:44;;;;;;;0.15;0.15;;;12.20;70.20;;;;;;5037740;28;20033;-76
2023/11/24 17:25:10;;;;;;;0.10;0.10;;;12.20;70.20;;;;;;5039103;28;20060;-76
2023/11/24 17:27:36;;;;;;;0.10;0.10;;;12.20;70.10;;;;;;5039250;28;20034;-77
2023/11/24 17:30:06;;;;;;;0.10;0.10;;;12.20;70.40;;;;;;5038497;28;20467;-76
2023/11/24 17:32:32;;;;;;;0.10;0.10;;;12.20;70.30;;;;;;5039211;28;20091;-76
2023/11/24 17:34:57;;;;;;;0.10;0.10;;;12.10;69.90;;;;;;5019947;28;20112;-77
2023/11/24 17:37:23;;;;;;;0.10;0.10;;;12.10;70.00;;;;;;5021800;28;20428;-76
2023/11/24 17:39:49;;;;;;;0.10;0.10;;;12.10;69.50;;;;;;5038104;28;20068;-77
2023/11/24 17:42:14;;;;;;;0.10;0.10;;;12.10;69.70;;;;;;5038514;28;20030;-77
2023/11/24 17:44:40;;;;;;;0.10;0.10;;;12.10;69.90;;;;;;5038245;28;20056;-77
2023/11/24 17:47:07;;;;;;;0.10;0.10;;;12.10;69.40;;;;;;5039071;28;20156;-75
2023/11/24 17:49:33;;;;;;;0.10;0.10;;;12.10;69.80;;;;;;5038276;28;20025;-78
2023/11/24 17:51:58;;;;;;;0.10;0.10;;;12.10;69.70;;;;;;5036627;28;20049;-75
2023/11/24 17:54:24;;;;;;;0.10;0.10;;;12.10;69.60;;;;;;5038350;28;20025;-76
2023/11/24 17:56:53;;;;;;;0.10;0.10;;;12.10;69.50;;;;;;5016293;28;20113;-75
2023/11/24 17:59:19;;;;;;;0.10;0.10;;;12.10;69.30;;;;;;5019073;28;20026;-77
2023/11/24 18:01:45;;;;;;;0.10;0.10;;;12.10;70.30;;;;;;5034366;28;20485;-77
2023/11/24 18:04:10;;;;;;;0.10;0.10;;;12.10;70.30;;;;;;5038521;28;20055;-77
2023/11/24 18:06:36;;;;;;;0.10;0.10;;;12.00;70.30;;;;;;5017084;28;20098;-77
2023/11/24 18:09:02;;;;;;;0.10;0.10;;;12.00;70.40;;;;;;5018604;28;20032;-76
2023/11/24 18:11:31;;;;;;;0.05;0.05;;;12.00;70.40;;;;;;5017610;28;20116;-76
2023/11/24 18:13:58;;;;;;;0.10;0.10;;;12.00;70.60;;;;;;5020546;28;20025;-76
2023/11/24 18:16:24;;;;;;;0.00;0.00;;;12.00;70.20;;;;;;5038725;28;20024;-76
2023/11/24 18:18:50;;;;;;;0.10;0.10;;;12.00;70.30;;;;;;5038302;28;20025;-75
2023/11/24 18:21:16;;;;;;;0.10;0.10;;;12.00;70.10;;;;;;5037650;28;20038;-77